createdAt,value
2023-02-19T00:01:33.802Z,4.32
2023-02-19T00:04:02.885Z,5.65
2023-02-19T00:06:32.333Z,3.97
2023-02-19T00:08:59.326Z,5.20
2023-02-19T00:11:28.701Z,5.35
2023-02-19T00:13:57.836Z,4.35
2023-02-19T00:16:35.973Z,5.38
2023-02-19T00:19:04.938Z,4.20
2023-02-19T00:21:32.492Z,4.13
2023-02-19T00:24:02.399Z,4.03
2023-02-19T00:26:29.816Z,5.07
2023-02-19T00:28:57.588Z,4.45
2023-02-19T00:31:33.336Z,4.18
2023-02-19T00:34:03.336Z,3.47
2023-02-19T00:36:31.323Z,3.60
2023-02-19T00:38:58.516Z,3.22
2023-02-19T00:41:26.038Z,3.78
2023-02-19T00:43:57.299Z,3.90
2023-02-19T00:46:30.641Z,2.65
2023-02-19T00:48:58.491Z,3.90
2023-02-19T00:51:28.448Z,3.80
2023-02-19T00:53:55.416Z,3.78
2023-02-19T00:56:22.365Z,3.13
2023-02-19T00:58:49.720Z,4.72
2023-02-19T01:01:18.675Z,2.58
2023-02-19T01:03:46.262Z,3.08
2023-02-19T01:06:15.141Z,3.47
2023-02-19T01:08:42.719Z,3.60
2023-02-19T01:11:10.781Z,3.63
2023-02-19T01:13:39.009Z,3.13
2023-02-19T01:16:22.498Z,3.38
2023-02-19T01:18:49.552Z,3.63
2023-02-19T01:21:23.412Z,3.00
2023-02-19T01:23:51.975Z,3.53
2023-02-19T01:26:25.518Z,3.67
2023-02-19T01:28:52.908Z,4.07
2023-02-19T01:31:22.539Z,3.80
2023-02-19T01:33:52.447Z,4.68
2023-02-19T01:36:19.457Z,3.13
2023-02-19T01:38:47.297Z,2.75
2023-02-19T01:41:17.058Z,3.13
2023-02-19T01:44:04.179Z,3.00
2023-02-19T01:46:35.756Z,3.25
2023-02-19T01:49:07.968Z,4.28
2023-02-19T01:51:39.235Z,2.55
2023-02-19T01:54:09.051Z,2.95
2023-02-19T01:56:38.426Z,4.18
2023-02-19T01:59:06.780Z,3.40
2023-02-19T02:01:33.949Z,3.42
2023-02-19T02:04:01.220Z,4.15
2023-02-19T02:06:36.456Z,2.70
2023-02-19T02:09:21.875Z,2.78
2023-02-19T02:11:51.971Z,2.65
2023-02-19T02:14:26.124Z,3.75
2023-02-19T02:17:04.032Z,3.22
2023-02-19T02:19:58.341Z,2.67
2023-02-19T02:22:42.728Z,4.78
2023-02-19T02:25:39.389Z,2.05
2023-02-19T02:28:44.064Z,2.13
2023-02-19T02:31:17.771Z,2.15
2023-02-19T02:33:47.911Z,2.83
2023-02-19T02:36:17.845Z,3.13
2023-02-19T02:38:46.890Z,2.20
2023-02-19T02:41:15.550Z,2.13
2023-02-19T02:43:42.646Z,2.45
2023-02-19T02:46:22.485Z,2.60
2023-02-19T02:48:55.600Z,2.28
2023-02-19T02:51:31.503Z,2.05
2023-02-19T02:54:27.157Z,3.38
2023-02-19T02:56:56.253Z,1.58
2023-02-19T02:59:26.001Z,2.90
2023-02-19T03:02:12.509Z,2.00
2023-02-19T03:05:17.092Z,2.15
2023-02-19T03:07:55.127Z,2.50
2023-02-19T03:10:53.550Z,2.63
2023-02-19T03:13:55.696Z,1.95
2023-02-19T03:16:49.582Z,2.25
2023-02-19T03:19:19.924Z,2.03
2023-02-19T03:22:15.974Z,3.35
2023-02-19T03:25:08.953Z,2.50
2023-02-19T03:27:39.296Z,2.00
2023-02-19T03:30:14.508Z,1.75
2023-02-19T03:32:55.850Z,1.50
2023-02-19T03:35:27.279Z,1.50
2023-02-19T03:38:11.496Z,2.42
2023-02-19T03:41:10.486Z,1.73
2023-02-19T03:44:21.701Z,1.40
2023-02-19T03:47:03.708Z,2.03
2023-02-19T03:49:39.930Z,2.42
2023-02-19T03:52:18.799Z,1.42
2023-02-19T03:54:58.948Z,2.30
2023-02-19T03:57:36.858Z,1.90
2023-02-19T04:00:49.216Z,2.63
2023-02-19T04:03:42.076Z,2.53
2023-02-19T04:06:16.860Z,1.95
2023-02-19T04:08:48.539Z,2.13
2023-02-19T04:11:17.664Z,2.25
2023-02-19T04:13:56.526Z,2.10
2023-02-19T04:16:28.569Z,1.60
2023-02-19T04:19:02.048Z,1.60
2023-02-19T04:21:31.076Z,1.90
2023-02-19T04:24:02.841Z,1.75
2023-02-19T04:26:31.442Z,2.05
2023-02-19T04:28:58.622Z,1.40
2023-02-19T04:31:28.046Z,1.88
2023-02-19T04:33:54.964Z,1.60
2023-02-19T04:36:21.726Z,1.50
2023-02-19T04:38:48.655Z,1.30
2023-02-19T04:41:15.525Z,1.77
2023-02-19T04:43:42.370Z,2.13
2023-02-19T04:46:09.314Z,1.95
2023-02-19T04:48:36.329Z,1.73
2023-02-19T04:51:07.311Z,1.77
2023-02-19T04:53:34.946Z,1.60
2023-02-19T04:56:09.049Z,2.03
2023-02-19T04:58:36.304Z,1.52
2023-02-19T05:01:03.597Z,1.20
2023-02-19T05:03:32.114Z,1.98
2023-02-19T05:06:03.140Z,1.60
2023-02-19T05:08:30.316Z,1.48
2023-02-19T05:11:01.158Z,1.20
2023-02-19T05:13:28.656Z,1.80
2023-02-19T05:16:00.639Z,1.27
2023-02-19T05:18:28.249Z,2.10
2023-02-19T05:20:55.084Z,1.55
2023-02-19T05:23:22.211Z,1.10
2023-02-19T05:25:49.081Z,1.15
2023-02-19T05:28:18.890Z,1.75
2023-02-19T05:30:51.831Z,1.35
2023-02-19T05:33:21.173Z,1.33
2023-02-19T05:35:50.788Z,1.30
2023-02-19T05:38:18.244Z,1.77
2023-02-19T05:40:45.933Z,1.10
2023-02-19T05:43:13.535Z,1.25
2023-02-19T05:45:40.558Z,1.38
2023-02-19T05:48:08.432Z,1.45
2023-02-19T05:50:39.418Z,1.58
2023-02-19T05:53:06.719Z,1.10
2023-02-19T05:55:37.259Z,1.38
2023-02-19T05:58:04.190Z,0.90
2023-02-19T06:00:32.740Z,1.02
2023-02-19T06:02:59.933Z,0.70
2023-02-19T06:05:27.029Z,1.35
2023-02-19T06:07:53.943Z,1.10
2023-02-19T06:10:20.807Z,0.70
2023-02-19T06:12:47.781Z,0.80
2023-02-19T06:15:14.627Z,1.15
2023-02-19T06:17:41.519Z,1.15
2023-02-19T06:20:08.825Z,0.82
2023-02-19T06:22:35.808Z,1.38
2023-02-19T06:25:02.699Z,1.88
2023-02-19T06:27:29.623Z,1.05
2023-02-19T06:29:56.539Z,1.35
2023-02-19T06:32:23.578Z,1.55
2023-02-19T06:34:50.525Z,2.15
2023-02-19T06:37:17.427Z,0.55
2023-02-19T06:39:44.879Z,0.70
2023-02-19T06:42:11.812Z,2.40
2023-02-19T06:44:38.714Z,1.10
2023-02-19T06:47:05.635Z,1.08
2023-02-19T06:49:32.444Z,1.30
2023-02-19T06:52:00.648Z,0.93
2023-02-19T06:54:27.693Z,2.10
2023-02-19T06:56:54.684Z,1.73
2023-02-19T06:59:21.558Z,0.70
2023-02-19T07:01:48.534Z,1.33
2023-02-19T07:04:15.947Z,0.68
2023-02-19T07:06:43.060Z,1.00
2023-02-19T07:09:11.037Z,1.30
2023-02-19T07:11:39.444Z,1.58
2023-02-19T07:14:07.945Z,1.38
2023-02-19T07:16:35.952Z,2.80
2023-02-19T07:19:03.595Z,1.35
2023-02-19T07:21:31.027Z,3.00
2023-02-19T07:23:58.284Z,2.55
2023-02-19T07:26:25.986Z,0.68
2023-02-19T07:28:53.050Z,2.35
2023-02-19T07:31:22.353Z,3.65
2023-02-19T07:33:50.234Z,1.73
2023-02-19T07:36:18.769Z,1.38
2023-02-19T07:38:45.935Z,1.35
2023-02-19T07:41:13.391Z,3.58
2023-02-19T07:43:40.789Z,1.52
2023-02-19T07:46:10.558Z,1.13
2023-02-19T07:48:38.625Z,0.77
2023-02-19T07:51:07.186Z,1.80
2023-02-19T07:53:35.554Z,1.20
2023-02-19T07:56:07.914Z,1.23
2023-02-19T07:58:35.562Z,2.80
2023-02-19T08:01:11.220Z,2.50
2023-02-19T08:03:38.700Z,3.25
2023-02-19T08:06:06.486Z,2.67
2023-02-19T08:08:33.461Z,1.00
2023-02-19T08:11:23.289Z,1.60
2023-02-19T08:13:52.585Z,1.58
2023-02-19T08:16:29.689Z,1.70
2023-02-19T08:19:00.545Z,1.85
2023-02-19T08:21:27.500Z,7.00
2023-02-19T08:23:54.352Z,1.30
2023-02-19T08:26:21.496Z,2.45
2023-02-19T08:28:49.093Z,2.63
2023-02-19T08:31:16.253Z,2.47
2023-02-19T08:33:43.333Z,1.95
2023-02-19T08:36:11.505Z,2.90
2023-02-19T08:38:38.892Z,2.03
2023-02-19T08:41:11.541Z,2.90
2023-02-19T08:43:39.506Z,2.28
2023-02-19T08:46:07.449Z,3.30
2023-02-19T08:48:34.476Z,2.90
2023-02-19T08:51:04.219Z,2.20
2023-02-19T08:53:32.340Z,2.70
2023-02-19T08:55:59.405Z,3.67
2023-02-19T08:58:26.875Z,3.70
2023-02-19T09:00:53.939Z,3.63
2023-02-19T09:03:20.994Z,2.28
2023-02-19T09:05:48.180Z,3.30
2023-02-19T09:08:15.955Z,2.97
2023-02-19T09:10:42.925Z,3.25
2023-02-19T09:13:11.269Z,1.75
2023-02-19T09:15:39.037Z,2.70
2023-02-19T09:18:06.083Z,2.97
2023-02-19T09:20:33.074Z,4.70
2023-02-19T09:23:00.221Z,3.20
2023-02-19T09:25:27.884Z,2.30
2023-02-19T09:28:36.448Z,3.85
2023-02-19T09:31:16.822Z,2.47
2023-02-19T09:33:47.890Z,1.20
2023-02-19T09:36:16.758Z,1.95
2023-02-19T09:38:43.880Z,2.55
2023-02-19T09:41:16.038Z,5.13
2023-02-19T09:43:44.118Z,3.67
2023-02-19T09:46:24.987Z,2.58
2023-02-19T09:48:54.876Z,1.98
2023-02-19T09:51:23.184Z,3.78
2023-02-19T09:53:51.950Z,2.53
2023-02-19T09:56:19.081Z,1.20
2023-02-19T09:58:52.493Z,3.85
2023-02-19T10:01:20.081Z,2.20
2023-02-19T10:03:48.701Z,2.85
2023-02-19T10:06:24.730Z,2.85
2023-02-19T10:09:11.755Z,1.52
2023-02-19T10:11:39.301Z,1.67
2023-02-19T10:14:11.014Z,1.42
2023-02-19T10:16:41.203Z,1.92
2023-02-19T10:19:12.454Z,2.78
2023-02-19T10:21:40.147Z,3.15
2023-02-19T10:24:08.515Z,1.67
2023-02-19T10:26:36.668Z,3.05
2023-02-19T10:29:05.131Z,3.80
2023-02-19T10:31:33.679Z,4.32
2023-02-19T10:34:06.628Z,7.20
2023-02-19T10:36:41.716Z,10.07
2023-02-19T10:39:29.232Z,6.22
2023-02-19T10:41:56.497Z,6.50
2023-02-19T10:44:27.681Z,9.35
2023-02-19T10:46:56.399Z,9.13
2023-02-19T10:49:35.250Z,8.43
2023-02-19T10:52:22.857Z,10.20
2023-02-19T10:54:54.093Z,14.60
2023-02-19T10:57:22.919Z,15.30
2023-02-19T10:59:54.310Z,6.50
2023-02-19T11:02:22.960Z,4.82
2023-02-19T11:05:09.101Z,3.25
2023-02-19T11:07:44.188Z,2.00
2023-02-19T11:10:21.630Z,2.15
2023-02-19T11:12:50.024Z,1.58
2023-02-19T11:15:22.191Z,2.72
2023-02-19T11:18:00.862Z,2.72
2023-02-19T11:20:29.587Z,1.40
2023-02-19T11:22:59.388Z,2.00
2023-02-19T11:25:26.919Z,2.72
2023-02-19T11:27:59.064Z,2.97
2023-02-19T11:30:36.060Z,3.30
2023-02-19T11:33:24.928Z,1.38
2023-02-19T11:35:54.626Z,2.15
2023-02-19T11:38:22.612Z,3.38
2023-02-19T11:40:58.830Z,2.03
2023-02-19T11:43:41.648Z,2.40
2023-02-19T11:46:09.773Z,3.90
2023-02-19T11:48:40.233Z,1.23
2023-02-19T11:51:25.736Z,3.00
2023-02-19T11:54:04.978Z,1.50
2023-02-19T11:56:37.496Z,2.53
2023-02-19T11:59:20.850Z,3.03
2023-02-19T12:02:14.808Z,2.15
2023-02-19T12:05:01.233Z,3.72
2023-02-19T12:07:34.641Z,2.42
2023-02-19T12:10:02.053Z,3.28
2023-02-19T12:12:38.024Z,2.08
2023-02-19T12:15:28.278Z,3.33
2023-02-19T12:18:10.770Z,1.20
2023-02-19T12:20:38.163Z,2.88
2023-02-19T12:23:14.677Z,5.40
2023-02-19T12:25:53.311Z,6.53
2023-02-19T12:28:37.500Z,3.08
2023-02-19T12:31:05.103Z,2.67
2023-02-19T12:33:50.904Z,4.70
2023-02-19T12:36:18.306Z,2.08
2023-02-19T12:38:53.181Z,2.10
2023-02-19T12:41:37.325Z,2.35
2023-02-19T12:44:19.364Z,3.03
2023-02-19T12:46:50.377Z,3.03
2023-02-19T12:49:20.904Z,2.15
2023-02-19T12:51:49.948Z,2.78
2023-02-19T12:54:24.596Z,2.92
2023-02-19T12:57:07.042Z,1.70
2023-02-19T12:59:34.378Z,3.35
2023-02-19T13:02:07.039Z,5.18
2023-02-19T13:05:08.406Z,2.83
2023-02-19T13:07:41.785Z,4.93
2023-02-19T13:10:12.240Z,1.98
2023-02-19T13:12:42.039Z,1.75
2023-02-19T13:15:22.995Z,1.25
2023-02-19T13:17:53.236Z,2.50
2023-02-19T13:20:27.529Z,1.58
2023-02-19T13:23:25.809Z,1.65
2023-02-19T13:25:56.727Z,2.03
2023-02-19T13:29:03.462Z,2.47
2023-02-19T13:31:46.243Z,4.50
2023-02-19T13:34:21.397Z,2.90
2023-02-19T13:36:49.127Z,2.65
2023-02-19T13:39:17.253Z,1.92
2023-02-19T13:41:50.700Z,1.83
2023-02-19T13:44:19.676Z,1.70
2023-02-19T13:46:47.932Z,3.28
2023-02-19T13:49:34.028Z,1.85
2023-02-19T13:52:02.446Z,1.73
2023-02-19T13:54:29.858Z,2.33
2023-02-19T13:57:16.078Z,2.15
2023-02-19T13:59:44.275Z,1.38
2023-02-19T14:02:13.513Z,2.53
2023-02-19T14:04:55.779Z,2.35
2023-02-19T14:07:32.556Z,3.72
2023-02-19T14:10:02.092Z,2.95
2023-02-19T14:12:33.453Z,2.80
2023-02-19T14:15:20.815Z,1.75
2023-02-19T14:17:48.266Z,2.58
2023-02-19T14:20:18.707Z,1.85
2023-02-19T14:22:50.374Z,2.97
2023-02-19T14:25:30.124Z,1.50
2023-02-19T14:28:05.552Z,1.42
2023-02-19T14:30:34.327Z,3.83
2023-02-19T14:33:10.617Z,2.35
2023-02-19T14:35:40.328Z,3.42
2023-02-19T14:38:08.130Z,2.72
2023-02-19T14:40:43.896Z,2.50
2023-02-19T14:43:14.385Z,2.85
2023-02-19T14:45:52.781Z,2.65
2023-02-19T14:48:26.609Z,1.05
2023-02-19T14:50:56.670Z,1.15
2023-02-19T14:53:25.353Z,1.67
2023-02-19T14:55:53.630Z,1.52
2023-02-19T14:58:25.110Z,0.88
2023-02-19T15:00:52.572Z,1.52
2023-02-19T15:03:27.447Z,1.15
2023-02-19T15:06:01.506Z,1.75
2023-02-19T15:08:46.008Z,2.70
2023-02-19T15:11:21.109Z,0.52
2023-02-19T15:13:51.388Z,2.05
2023-02-19T15:16:20.718Z,2.08
2023-02-19T15:18:49.269Z,1.92
2023-02-19T15:21:29.690Z,1.30
2023-02-19T15:23:58.804Z,1.63
2023-02-19T15:26:45.211Z,1.35
2023-02-19T15:29:14.013Z,1.33
2023-02-19T15:31:48.666Z,1.17
2023-02-19T15:34:17.680Z,2.03
2023-02-19T15:36:45.158Z,1.10
2023-02-19T15:39:21.139Z,1.85
2023-02-19T15:41:52.753Z,2.25
2023-02-19T15:44:28.585Z,1.50
2023-02-19T15:46:56.560Z,4.88
2023-02-19T15:49:31.180Z,2.42
2023-02-19T15:52:07.996Z,0.77
2023-02-19T15:54:40.224Z,1.45
2023-02-19T15:57:12.685Z,1.30
2023-02-19T15:59:45.632Z,1.48
2023-02-19T16:02:14.137Z,1.83
2023-02-19T16:04:42.841Z,1.55
2023-02-19T16:07:24.831Z,1.38
2023-02-19T16:10:06.124Z,1.00
2023-02-19T16:12:33.743Z,0.70
2023-02-19T16:15:01.184Z,1.23
2023-02-19T16:17:28.681Z,1.05
2023-02-19T16:20:00.874Z,1.50
2023-02-19T16:22:29.992Z,1.25
2023-02-19T16:25:01.461Z,3.72
2023-02-19T16:27:42.090Z,1.85
2023-02-19T16:30:09.811Z,1.50
2023-02-19T16:32:36.980Z,2.55
2023-02-19T16:35:06.240Z,3.05
2023-02-19T16:37:37.663Z,0.77
2023-02-19T16:40:11.250Z,1.92
2023-02-19T16:42:50.873Z,0.98
2023-02-19T16:45:18.852Z,1.83
2023-02-19T16:47:48.606Z,2.03
2023-02-19T16:50:20.783Z,1.73
2023-02-19T16:52:58.437Z,1.40
2023-02-19T16:55:26.294Z,0.98
2023-02-19T16:57:53.861Z,2.45
2023-02-19T17:00:30.543Z,1.15
2023-02-19T17:03:14.573Z,1.75
2023-02-19T17:05:42.307Z,1.45
2023-02-19T17:08:35.378Z,1.70
2023-02-19T17:11:05.679Z,2.55
2023-02-19T17:13:32.595Z,0.85
2023-02-19T17:16:00.034Z,1.20
2023-02-19T17:18:27.080Z,1.73
2023-02-19T17:21:10.890Z,1.30
2023-02-19T17:23:38.039Z,2.63
2023-02-19T17:26:34.712Z,1.15
2023-02-19T17:29:04.394Z,1.92
2023-02-19T17:31:31.959Z,1.35
2023-02-19T17:33:59.372Z,1.02
2023-02-19T17:36:30.951Z,1.20
2023-02-19T17:38:59.635Z,1.30
2023-02-19T17:41:27.098Z,1.45
2023-02-19T17:43:54.074Z,1.02
2023-02-19T17:46:26.906Z,1.70
2023-02-19T17:48:54.894Z,1.23
2023-02-19T17:51:22.251Z,1.70
2023-02-19T17:53:49.761Z,1.20
2023-02-19T17:56:19.929Z,2.10
2023-02-19T17:58:47.513Z,1.88
2023-02-19T18:01:15.512Z,1.45
2023-02-19T18:03:43.316Z,1.50
2023-02-19T18:06:10.599Z,1.95
2023-02-19T18:08:42.483Z,1.92
2023-02-19T18:11:12.737Z,2.28
2023-02-19T18:13:39.869Z,2.97
2023-02-19T18:16:07.095Z,1.27
2023-02-19T18:18:33.967Z,1.90
2023-02-19T18:21:00.816Z,1.17
2023-02-19T18:23:28.110Z,1.25
2023-02-19T18:25:54.986Z,1.83
2023-02-19T18:28:21.884Z,2.00
2023-02-19T18:30:48.849Z,2.33
2023-02-19T18:33:15.929Z,2.70
2023-02-19T18:35:42.850Z,2.55
2023-02-19T18:38:09.777Z,1.33
2023-02-19T18:40:36.682Z,2.08
2023-02-19T18:43:04.710Z,2.53
2023-02-19T18:45:35.473Z,2.17
2023-02-19T18:48:02.539Z,3.10
2023-02-19T18:50:29.471Z,2.83
2023-02-19T18:52:56.513Z,3.13
2023-02-19T18:55:23.511Z,2.83
2023-02-19T18:57:50.378Z,2.22
2023-02-19T19:00:20.272Z,1.35
2023-02-19T19:02:50.944Z,3.80
2023-02-19T19:05:23.083Z,3.80
2023-02-19T19:07:55.493Z,7.47
2023-02-19T19:10:23.439Z,5.55
2023-02-19T19:12:50.876Z,3.42
2023-02-19T19:15:18.980Z,3.42
2023-02-19T19:17:47.065Z,4.85
2023-02-19T19:20:16.107Z,4.88
2023-02-19T19:22:43.124Z,3.83
2023-02-19T19:25:10.186Z,2.58
2023-02-19T19:27:37.243Z,4.75
2023-02-19T19:30:05.654Z,2.55
2023-02-19T19:32:32.557Z,4.63
2023-02-19T19:34:59.508Z,2.80
2023-02-19T19:37:28.504Z,2.25
2023-02-19T19:39:58.388Z,1.83
2023-02-19T19:42:25.388Z,2.50
2023-02-19T19:44:52.356Z,2.10
2023-02-19T19:47:19.683Z,2.90
2023-02-19T19:49:47.459Z,4.57
2023-02-19T19:52:14.929Z,3.50
2023-02-19T19:54:47.355Z,5.45
2023-02-19T19:57:16.057Z,6.57
2023-02-19T19:59:42.890Z,2.72
2023-02-19T20:02:12.113Z,3.92
2023-02-19T20:04:38.982Z,1.88
2023-02-19T20:07:06.501Z,4.90
2023-02-19T20:09:35.709Z,2.20
2023-02-19T20:12:06.597Z,2.47
2023-02-19T20:14:34.401Z,2.25
2023-02-19T20:17:01.358Z,3.40
2023-02-19T20:19:28.250Z,2.42
2023-02-19T20:21:55.347Z,2.13
2023-02-19T20:24:28.942Z,3.97
2023-02-19T20:26:58.730Z,4.13
2023-02-19T20:29:35.777Z,4.78
2023-02-19T20:32:03.954Z,3.65
2023-02-19T20:34:31.676Z,3.55
2023-02-19T20:36:58.949Z,8.68
2023-02-19T20:39:29.168Z,1.95
2023-02-19T20:41:57.496Z,3.25
2023-02-19T20:44:25.212Z,5.75
2023-02-19T20:46:52.779Z,3.22
2023-02-19T20:49:21.906Z,3.42
2023-02-19T20:51:52.020Z,3.85
2023-02-19T20:54:24.277Z,2.17
2023-02-19T20:56:53.212Z,3.88
2023-02-19T20:59:23.373Z,2.97
2023-02-19T21:01:50.599Z,2.30
2023-02-19T21:04:19.081Z,4.53
2023-02-19T21:06:46.538Z,2.28
2023-02-19T21:09:13.403Z,4.80
2023-02-19T21:11:40.325Z,2.03
2023-02-19T21:14:07.210Z,2.40
2023-02-19T21:16:34.350Z,2.33
2023-02-19T21:19:01.811Z,2.28
2023-02-19T21:21:30.423Z,3.17
2023-02-19T21:23:59.481Z,2.05
2023-02-19T21:26:34.683Z,2.08
2023-02-19T21:29:01.860Z,2.25
2023-02-19T21:31:47.025Z,3.00
2023-02-19T21:34:17.046Z,1.58
2023-02-19T21:36:44.033Z,1.90
2023-02-19T21:39:13.936Z,2.38
2023-02-19T21:41:41.122Z,1.33
2023-02-19T21:44:08.239Z,1.38
2023-02-19T21:46:35.225Z,1.55
2023-02-19T21:49:04.444Z,0.95
2023-02-19T21:51:34.438Z,0.95
2023-02-19T21:54:02.268Z,1.70
2023-02-19T21:56:35.074Z,2.15
2023-02-19T21:59:04.271Z,2.25
2023-02-19T22:01:38.893Z,3.17
2023-02-19T22:04:11.740Z,3.25
2023-02-19T22:06:40.745Z,3.45
2023-02-19T22:09:09.097Z,2.53
2023-02-19T22:11:36.058Z,3.15
2023-02-19T22:14:03.337Z,2.35
2023-02-19T22:16:30.300Z,2.50
2023-02-19T22:18:59.108Z,1.60
2023-02-19T22:21:28.934Z,2.28
2023-02-19T22:23:55.926Z,3.22
2023-02-19T22:26:28.776Z,2.40
2023-02-19T22:28:56.423Z,2.30
2023-02-19T22:31:25.710Z,3.50
2023-02-19T22:33:53.008Z,3.83
2023-02-19T22:36:23.490Z,3.55
2023-02-19T22:38:50.981Z,2.92
2023-02-19T22:41:19.036Z,4.07
2023-02-19T22:43:46.886Z,1.90
2023-02-19T22:46:20.024Z,3.03
2023-02-19T22:48:46.856Z,2.53
2023-02-19T22:51:16.076Z,4.22
2023-02-19T22:53:55.135Z,2.75
2023-02-19T22:56:24.664Z,2.95
2023-02-19T22:58:52.347Z,3.20
2023-02-19T23:01:20.550Z,1.77
2023-02-19T23:03:52.993Z,1.50
2023-02-19T23:06:28.608Z,1.27
2023-02-19T23:08:57.250Z,2.10
2023-02-19T23:11:29.014Z,2.72
2023-02-19T23:13:56.457Z,2.65
2023-02-19T23:16:23.364Z,3.67
2023-02-19T23:18:50.392Z,4.40
2023-02-19T23:21:18.639Z,2.70
2023-02-19T23:23:46.772Z,3.20
2023-02-19T23:26:15.740Z,2.42
2023-02-19T23:28:43.877Z,3.35
2023-02-19T23:31:11.862Z,4.13
2023-02-19T23:33:39.953Z,4.13
2023-02-19T23:36:07.638Z,3.72
2023-02-19T23:38:34.602Z,1.95
2023-02-19T23:41:01.679Z,2.80
2023-02-19T23:43:28.666Z,3.70
2023-02-19T23:45:55.698Z,3.05
2023-02-19T23:48:22.600Z,3.63
2023-02-19T23:50:49.421Z,2.80
2023-02-19T23:53:16.385Z,2.80
2023-02-19T23:55:43.320Z,2.97
2023-02-19T23:58:10.241Z,4.43
